createdAt,value
2018-03-21T00:00:14.202Z,1.20
2018-03-21T00:01:20.238Z,1.30
2018-03-21T00:02:25.400Z,1.20
2018-03-21T00:03:30.570Z,1.30
2018-03-21T00:04:36.880Z,1.30
2018-03-21T00:05:43.090Z,1.30
2018-03-21T00:06:49.016Z,1.30
2018-03-21T00:07:58.038Z,1.30
2018-03-21T00:09:03.387Z,1.40
2018-03-21T00:10:09.702Z,1.40
2018-03-21T00:11:15.911Z,1.30
2018-03-21T00:12:22.171Z,1.30
2018-03-21T00:13:27.852Z,1.30
2018-03-21T00:14:33.560Z,1.30
2018-03-21T00:15:38.665Z,1.30
2018-03-21T00:16:45.452Z,1.40
2018-03-21T00:17:50.730Z,1.30
2018-03-21T00:18:56.072Z,1.30
2018-03-21T00:20:01.046Z,1.20
2018-03-21T00:21:06.250Z,1.20
2018-03-21T00:22:12.930Z,1.20
2018-03-21T00:23:18.076Z,1.20
2018-03-21T00:24:23.223Z,1.20
2018-03-21T00:25:28.456Z,1.10
2018-03-21T00:26:34.709Z,1.10
2018-03-21T00:27:40.312Z,1.00
2018-03-21T00:28:45.820Z,1.00
2018-03-21T00:29:51.794Z,0.90
2018-03-21T00:30:57.167Z,0.90
2018-03-21T00:32:02.367Z,0.90
2018-03-21T00:33:08.320Z,0.90
2018-03-21T00:34:13.502Z,0.90
2018-03-21T00:35:19.605Z,1.00
2018-03-21T00:36:24.890Z,0.90
2018-03-21T00:37:30.272Z,0.90
2018-03-21T00:38:35.767Z,0.90
2018-03-21T00:39:40.956Z,0.90
2018-03-21T00:40:46.180Z,0.90
2018-03-21T00:41:51.142Z,0.90
2018-03-21T00:42:56.477Z,0.80
2018-03-21T00:44:01.871Z,0.70
2018-03-21T00:45:07.704Z,0.70
2018-03-21T00:46:12.932Z,0.70
2018-03-21T00:47:18.268Z,0.60
2018-03-21T00:48:23.365Z,0.60
2018-03-21T00:49:28.498Z,0.60
2018-03-21T00:50:33.991Z,0.60
2018-03-21T00:51:39.237Z,0.60
2018-03-21T00:52:44.541Z,0.60
2018-03-21T00:53:50.307Z,0.60
2018-03-21T00:54:55.406Z,0.60
2018-03-21T00:56:02.272Z,0.60
2018-03-21T00:57:08.988Z,0.60
2018-03-21T00:58:14.113Z,0.60
2018-03-21T00:59:19.292Z,0.60
2018-03-21T01:00:24.544Z,0.60
2018-03-21T01:01:29.465Z,0.60
2018-03-21T01:02:34.643Z,0.60
2018-03-21T01:03:39.845Z,0.50
2018-03-21T01:04:45.041Z,0.50
2018-03-21T01:05:50.209Z,0.40
2018-03-21T01:06:55.553Z,0.40
2018-03-21T01:08:00.764Z,0.40
2018-03-21T01:09:07.249Z,0.40
2018-03-21T01:10:13.277Z,0.30
2018-03-21T01:11:18.610Z,0.30
2018-03-21T01:12:23.812Z,0.20
2018-03-21T01:13:28.849Z,0.20
2018-03-21T01:14:34.043Z,0.20
2018-03-21T01:15:39.323Z,0.20
2018-03-21T01:16:44.079Z,0.20
2018-03-21T01:17:49.364Z,0.20
2018-03-21T01:18:54.868Z,0.20
2018-03-21T01:20:00.059Z,0.20
2018-03-21T01:21:05.993Z,0.10
2018-03-21T01:22:12.019Z,0.20
2018-03-21T01:23:17.139Z,0.10
2018-03-21T01:24:22.141Z,0.20
2018-03-21T01:25:27.409Z,0.20
2018-03-21T01:26:33.367Z,0.20
2018-03-21T01:27:39.911Z,0.30
2018-03-21T01:28:45.020Z,0.20
2018-03-21T01:29:50.059Z,0.30
2018-03-21T01:30:55.030Z,0.30
2018-03-21T01:32:00.085Z,0.20
2018-03-21T01:33:05.622Z,0.20
2018-03-21T01:34:12.642Z,0.20
2018-03-21T01:35:18.572Z,0.10
2018-03-21T01:36:24.673Z,0.10
2018-03-21T01:37:30.446Z,0.00
2018-03-21T01:38:35.493Z,0.10
2018-03-21T01:39:41.353Z,0.10
2018-03-21T01:40:46.294Z,0.10
2018-03-21T01:41:51.252Z,0.10
2018-03-21T01:42:56.456Z,0.10
2018-03-21T01:44:01.656Z,0.10
2018-03-21T01:45:07.197Z,0.10
2018-03-21T01:46:12.339Z,0.20
2018-03-21T01:47:18.576Z,0.10
2018-03-21T01:48:24.628Z,0.10
2018-03-21T01:49:29.498Z,0.10
2018-03-21T01:50:34.622Z,0.00
2018-03-21T01:51:39.779Z,0.10
2018-03-21T01:52:44.724Z,0.10
2018-03-21T01:53:49.369Z,0.00
2018-03-21T01:54:53.989Z,0.00
2018-03-21T01:55:58.804Z,0.00
2018-03-21T01:57:03.538Z,0.00
2018-03-21T01:58:09.245Z,0.00
2018-03-21T01:59:14.282Z,0.00
2018-03-21T02:00:19.099Z,-0.10
2018-03-21T02:01:23.885Z,-0.10
2018-03-21T02:02:29.111Z,-0.10
2018-03-21T02:03:33.702Z,-0.20
2018-03-21T02:04:39.030Z,-0.30
2018-03-21T02:05:44.591Z,-0.40
2018-03-21T02:06:49.379Z,-0.40
2018-03-21T02:07:54.777Z,-0.50
2018-03-21T02:08:59.291Z,-0.50
2018-03-21T02:10:03.910Z,-0.50
2018-03-21T02:11:09.353Z,-0.60
2018-03-21T02:12:13.859Z,-0.60
2018-03-21T02:13:18.387Z,-0.60
2018-03-21T02:14:22.903Z,-0.60
2018-03-21T02:15:28.033Z,-0.60
2018-03-21T02:16:33.207Z,-0.60
2018-03-21T02:17:37.734Z,-0.60
2018-03-21T02:18:42.631Z,-0.60
2018-03-21T02:19:47.086Z,-0.60
2018-03-21T02:20:51.693Z,-0.50
2018-03-21T02:21:56.185Z,-0.50
2018-03-21T02:23:01.026Z,-0.50
2018-03-21T02:24:05.591Z,-0.60
2018-03-21T02:25:11.534Z,-0.50
2018-03-21T02:26:16.470Z,-0.60
2018-03-21T02:27:21.006Z,-0.60
2018-03-21T02:28:25.544Z,-0.60
2018-03-21T02:29:29.945Z,-0.60
2018-03-21T02:30:35.048Z,-0.70
2018-03-21T02:31:39.592Z,-0.70
2018-03-21T02:32:47.162Z,-0.70
2018-03-21T02:33:51.809Z,-0.70
2018-03-21T02:34:56.157Z,-0.70
2018-03-21T02:36:00.869Z,-0.80
2018-03-21T02:37:05.468Z,-0.80
2018-03-21T02:38:10.475Z,-0.80
2018-03-21T02:39:15.524Z,-0.80
2018-03-21T02:40:20.027Z,-0.80
2018-03-21T02:41:24.372Z,-0.80
2018-03-21T02:42:28.760Z,-0.80
2018-03-21T02:43:33.777Z,-0.90
2018-03-21T02:44:38.443Z,-0.90
2018-03-21T02:45:42.951Z,-0.90
2018-03-21T02:46:49.704Z,-0.90
2018-03-21T02:47:54.663Z,-0.80
2018-03-21T02:49:01.085Z,-0.90
2018-03-21T02:50:07.734Z,-0.90
2018-03-21T02:51:12.743Z,-0.90
2018-03-21T02:52:18.029Z,-0.90
2018-03-21T02:53:23.737Z,-0.90
2018-03-21T02:54:29.008Z,-0.90
2018-03-21T02:55:35.080Z,-0.90
2018-03-21T02:56:41.366Z,-0.80
2018-03-21T02:57:46.753Z,-0.80
2018-03-21T02:58:52.327Z,-0.70
2018-03-21T02:59:57.027Z,-0.80
2018-03-21T03:01:04.683Z,-0.80
2018-03-21T03:02:09.995Z,-0.80
2018-03-21T03:03:15.172Z,-0.80
2018-03-21T03:04:19.889Z,-0.80
2018-03-21T03:05:24.342Z,-0.90
2018-03-21T03:06:29.551Z,-1.00
2018-03-21T03:07:33.978Z,-1.00
2018-03-21T03:08:38.322Z,-1.00
2018-03-21T03:09:42.651Z,-1.00
2018-03-21T03:10:47.020Z,-1.00
2018-03-21T03:11:52.617Z,-1.10
2018-03-21T03:12:57.060Z,-1.10
2018-03-21T03:14:02.959Z,-1.30
2018-03-21T03:15:08.293Z,-1.30
2018-03-21T03:16:12.864Z,-1.30
2018-03-21T03:17:17.233Z,-1.30
2018-03-21T03:18:21.620Z,-1.20
2018-03-21T03:19:26.000Z,-1.30
2018-03-21T03:20:30.603Z,-1.20
2018-03-21T03:21:34.991Z,-1.30
2018-03-21T03:22:40.200Z,-1.30
2018-03-21T03:23:45.612Z,-1.20
2018-03-21T03:24:52.436Z,-1.30
2018-03-21T03:25:57.078Z,-1.30
2018-03-21T03:27:01.553Z,-1.40
2018-03-21T03:28:08.039Z,-1.40
2018-03-21T03:29:12.723Z,-1.40
2018-03-21T03:30:17.898Z,-1.40
2018-03-21T03:31:22.427Z,-1.40
2018-03-21T03:32:27.746Z,-1.40
2018-03-21T03:33:32.402Z,-1.50
2018-03-21T03:34:37.458Z,-1.50
2018-03-21T03:35:41.777Z,-1.50
2018-03-21T03:36:46.375Z,-1.50
2018-03-21T03:37:51.202Z,-1.50
2018-03-21T03:38:55.452Z,-1.50
2018-03-21T03:39:59.690Z,-1.50
2018-03-21T03:41:04.818Z,-1.50
2018-03-21T03:42:10.886Z,-1.50
2018-03-21T03:43:15.150Z,-1.50
2018-03-21T03:44:19.548Z,-1.50
2018-03-21T03:45:26.393Z,-1.50
2018-03-21T03:46:30.784Z,-1.60
2018-03-21T03:47:35.514Z,-1.50
2018-03-21T03:48:39.756Z,-1.50
2018-03-21T03:49:44.081Z,-1.50
2018-03-21T03:50:49.275Z,-1.60
2018-03-21T03:51:53.603Z,-1.60
2018-03-21T03:52:58.090Z,-1.70
2018-03-21T03:54:02.702Z,-1.70
2018-03-21T03:55:08.198Z,-1.70
2018-03-21T03:56:13.028Z,-1.80
2018-03-21T03:57:17.443Z,-1.70
2018-03-21T03:58:22.139Z,-1.70
2018-03-21T03:59:26.498Z,-1.70
2018-03-21T04:00:30.811Z,-1.80
2018-03-21T04:01:35.212Z,-1.80
2018-03-21T04:02:39.704Z,-1.90
2018-03-21T04:03:44.188Z,-1.90
2018-03-21T04:04:48.800Z,-2.00
2018-03-21T04:05:53.458Z,-2.00
2018-03-21T04:06:57.988Z,-2.00
2018-03-21T04:08:02.733Z,-2.00
2018-03-21T04:09:08.332Z,-2.10
2018-03-21T04:10:12.848Z,-2.00
2018-03-21T04:11:17.334Z,-2.00
2018-03-21T04:12:21.631Z,-2.00
2018-03-21T04:13:25.969Z,-2.00
2018-03-21T04:14:30.505Z,-1.90
2018-03-21T04:15:35.805Z,-1.90
2018-03-21T04:16:40.256Z,-1.90
2018-03-21T04:17:45.401Z,-1.80
2018-03-21T04:18:49.713Z,-1.80
2018-03-21T04:19:54.082Z,-1.70
2018-03-21T04:21:02.684Z,-1.70
2018-03-21T04:22:08.312Z,-1.70
2018-03-21T04:23:12.807Z,-1.70
2018-03-21T04:24:17.232Z,-1.80
2018-03-21T04:25:21.630Z,-1.70
2018-03-21T04:26:26.355Z,-1.70
2018-03-21T04:27:30.729Z,-1.70
2018-03-21T04:28:35.130Z,-1.70
2018-03-21T04:29:39.512Z,-1.80
2018-03-21T04:30:44.708Z,-2.00
2018-03-21T04:31:49.154Z,-2.00
2018-03-21T04:32:54.355Z,-2.10
2018-03-21T04:34:29.496Z,-2.10
2018-03-21T04:35:34.552Z,-2.10
2018-03-21T04:36:38.914Z,-2.20
2018-03-21T04:37:43.345Z,-2.10
2018-03-21T04:38:48.619Z,-2.20
2018-03-21T04:39:53.157Z,-2.20
2018-03-21T04:40:57.449Z,-2.20
2018-03-21T04:42:04.295Z,-2.30
2018-03-21T04:43:11.485Z,-2.20
2018-03-21T04:44:16.240Z,-2.30
2018-03-21T04:45:20.797Z,-2.30
2018-03-21T04:46:26.103Z,-2.20
2018-03-21T04:47:31.403Z,-2.10
2018-03-21T04:48:36.064Z,-2.10
2018-03-21T04:49:40.764Z,-2.00
2018-03-21T04:50:45.985Z,-1.90
2018-03-21T04:51:51.139Z,-1.80
2018-03-21T04:52:55.526Z,-1.90
2018-03-21T04:54:00.571Z,-1.80
2018-03-21T04:55:05.192Z,-1.80
2018-03-21T04:56:10.770Z,-1.80
2018-03-21T04:57:15.263Z,-1.80
2018-03-21T04:58:19.893Z,-1.80
2018-03-21T04:59:24.529Z,-1.70
2018-03-21T05:00:29.324Z,-1.80
2018-03-21T05:01:33.886Z,-1.80
2018-03-21T05:02:38.176Z,-1.80
2018-03-21T05:03:43.454Z,-1.90
2018-03-21T05:04:48.027Z,-1.90
2018-03-21T05:05:53.358Z,-1.90
2018-03-21T05:06:57.789Z,-1.90
2018-03-21T05:08:02.873Z,-1.90
2018-03-21T05:09:10.724Z,-1.90
2018-03-21T05:10:17.142Z,-1.90
2018-03-21T05:11:27.032Z,-1.90
2018-03-21T05:12:32.440Z,-1.90
2018-03-21T05:13:37.122Z,-1.90
2018-03-21T05:14:41.788Z,-1.90
2018-03-21T05:15:46.403Z,-1.80
2018-03-21T05:16:50.776Z,-1.80
2018-03-21T05:17:55.207Z,-1.90
2018-03-21T05:18:59.734Z,-1.90
2018-03-21T05:20:04.366Z,-1.90
2018-03-21T05:21:08.841Z,-1.90
2018-03-21T05:22:13.385Z,-1.90
2018-03-21T05:23:18.562Z,-1.90
2018-03-21T05:24:22.935Z,-1.90
2018-03-21T05:25:27.486Z,-2.00
2018-03-21T05:26:32.171Z,-2.00
2018-03-21T05:27:36.539Z,-2.00
2018-03-21T05:28:41.252Z,-2.00
2018-03-21T05:29:45.631Z,-2.20
2018-03-21T05:30:50.205Z,-2.20
2018-03-21T05:31:54.987Z,-2.20
2018-03-21T05:32:59.936Z,-2.20
2018-03-21T05:34:05.004Z,-2.20
2018-03-21T05:35:09.726Z,-2.30
2018-03-21T05:36:14.643Z,-2.20
2018-03-21T05:37:19.390Z,-2.10
2018-03-21T05:38:23.881Z,-2.10
2018-03-21T05:39:28.313Z,-2.10
2018-03-21T05:40:32.989Z,-2.10
2018-03-21T05:41:38.280Z,-2.10
2018-03-21T05:42:42.868Z,-2.10
2018-03-21T05:43:47.445Z,-2.10
2018-03-21T05:44:52.888Z,-2.10
2018-03-21T05:45:57.785Z,-2.10
2018-03-21T05:47:02.715Z,-2.10
2018-03-21T05:48:09.023Z,-2.00
2018-03-21T05:49:14.523Z,-2.00
2018-03-21T05:50:19.225Z,-2.00
2018-03-21T05:51:24.852Z,-1.90
2018-03-21T05:52:30.024Z,-1.90
2018-03-21T05:53:34.585Z,-1.90
2018-03-21T05:54:39.487Z,-1.80
2018-03-21T05:55:44.349Z,-1.80
2018-03-21T05:56:49.963Z,-1.90
2018-03-21T05:57:54.770Z,-2.00
2018-03-21T05:58:59.770Z,-2.00
2018-03-21T06:00:04.960Z,-2.00
2018-03-21T06:01:11.048Z,-2.00
2018-03-21T06:02:16.059Z,-1.90
2018-03-21T06:03:21.049Z,-1.90
2018-03-21T06:04:26.763Z,-1.80
2018-03-21T06:05:32.430Z,-1.80
2018-03-21T06:06:37.493Z,-1.70
2018-03-21T06:07:43.730Z,-1.60
2018-03-21T06:08:49.030Z,-1.60
2018-03-21T06:09:55.279Z,-1.60
2018-03-21T06:11:01.585Z,-1.50
2018-03-21T06:12:06.857Z,-1.60
2018-03-21T06:13:13.680Z,-1.50
2018-03-21T06:14:19.249Z,-1.50
2018-03-21T06:15:25.062Z,-1.50
2018-03-21T06:16:32.476Z,-1.40
2018-03-21T06:17:39.569Z,-1.40
2018-03-21T06:18:45.027Z,-1.30
2018-03-21T06:19:50.422Z,-1.30
2018-03-21T06:20:56.507Z,-1.30
2018-03-21T06:22:01.656Z,-1.30
2018-03-21T06:23:08.960Z,-1.20
2018-03-21T06:24:14.184Z,-1.20
2018-03-21T06:25:20.363Z,-1.20
2018-03-21T06:26:25.954Z,-1.20
2018-03-21T06:27:31.155Z,-1.20
2018-03-21T06:28:37.291Z,-1.20
2018-03-21T06:29:42.482Z,-1.10
2018-03-21T06:30:48.770Z,-1.10
2018-03-21T06:32:03.718Z,-1.10
2018-03-21T06:33:10.349Z,-1.00
2018-03-21T06:34:15.810Z,-1.00
2018-03-21T06:35:21.641Z,-0.90
2018-03-21T06:36:29.251Z,-0.90
2018-03-21T06:37:34.528Z,-0.90
2018-03-21T06:38:39.962Z,-0.90
2018-03-21T06:39:44.975Z,-0.90
2018-03-21T06:40:50.124Z,-0.80
2018-03-21T06:41:55.716Z,-0.80
2018-03-21T06:43:00.986Z,-0.80
2018-03-21T06:44:08.396Z,-0.70
2018-03-21T06:45:14.723Z,-0.70
2018-03-21T06:46:19.634Z,-0.70
2018-03-21T06:47:24.634Z,-0.60
2018-03-21T06:48:29.830Z,-0.70
2018-03-21T06:49:36.045Z,-0.60
2018-03-21T06:50:41.158Z,-0.60
2018-03-21T06:51:46.955Z,-0.60
2018-03-21T06:52:52.092Z,-0.60
2018-03-21T06:53:57.383Z,-0.60
2018-03-21T06:55:03.127Z,-0.60
2018-03-21T06:56:09.855Z,-0.50
2018-03-21T06:57:15.116Z,-0.60
2018-03-21T06:58:21.195Z,-0.50
2018-03-21T06:59:26.524Z,-0.50
2018-03-21T07:00:32.650Z,-0.40
2018-03-21T07:01:38.705Z,-0.50
2018-03-21T07:02:44.918Z,-0.40
2018-03-21T07:03:50.000Z,-0.50
2018-03-21T07:04:55.419Z,-0.40
2018-03-21T07:06:02.403Z,-0.30
2018-03-21T07:07:08.198Z,-0.30
2018-03-21T07:08:13.594Z,-0.30
2018-03-21T07:09:18.642Z,-0.20
2018-03-21T07:10:23.760Z,-0.20
2018-03-21T07:11:28.704Z,-0.20
2018-03-21T07:12:34.727Z,-0.20
2018-03-21T07:13:48.457Z,-0.20
2018-03-21T07:17:05.489Z,-0.30
2018-03-21T07:18:13.196Z,-0.40
2018-03-21T07:19:19.293Z,-0.30
2018-03-21T07:20:24.276Z,-0.40
2018-03-21T07:21:30.327Z,-0.30
2018-03-21T07:22:36.760Z,-0.30
2018-03-21T07:23:43.173Z,-0.30
2018-03-21T07:24:48.367Z,-0.20
2018-03-21T07:25:54.467Z,0.00
2018-03-21T07:26:59.938Z,0.00
2018-03-21T07:28:06.101Z,0.00
2018-03-21T07:29:13.431Z,0.10
2018-03-21T07:30:18.801Z,0.00
2018-03-21T07:31:24.777Z,0.10
2018-03-21T07:32:30.177Z,0.10
2018-03-21T07:33:36.276Z,-0.10
2018-03-21T07:34:41.623Z,-0.10
2018-03-21T07:35:46.811Z,-0.20
2018-03-21T07:36:52.040Z,-0.20
2018-03-21T07:37:57.394Z,-0.10
2018-03-21T07:39:03.003Z,-0.20
2018-03-21T07:40:09.345Z,-0.20
2018-03-21T07:41:15.778Z,-0.30
2018-03-21T07:42:21.647Z,-0.40
2018-03-21T07:43:27.692Z,-0.40
2018-03-21T07:44:33.796Z,-0.30
2018-03-21T07:45:39.190Z,-0.30
2018-03-21T07:46:44.347Z,-0.20
2018-03-21T07:47:49.455Z,-0.30
2018-03-21T07:48:54.905Z,-0.20
2018-03-21T07:50:00.549Z,-0.10
2018-03-21T07:51:06.319Z,0.00
2018-03-21T07:52:11.932Z,0.00
2018-03-21T07:53:17.265Z,0.00
2018-03-21T07:54:22.813Z,0.00
2018-03-21T07:55:28.059Z,0.00
2018-03-21T07:56:33.641Z,0.00
2018-03-21T07:57:38.771Z,-0.10
2018-03-21T07:58:43.977Z,-0.10
2018-03-21T07:59:49.062Z,-0.20
2018-03-21T08:00:54.229Z,-0.20
2018-03-21T08:01:59.378Z,-0.30
2018-03-21T08:03:05.162Z,-0.30
2018-03-21T08:04:10.549Z,-0.30
2018-03-21T08:05:15.831Z,-0.40
2018-03-21T08:06:20.799Z,-0.30
2018-03-21T08:07:25.826Z,0.00
2018-03-21T08:08:31.298Z,0.00
2018-03-21T08:09:37.233Z,-0.10
2018-03-21T08:10:42.228Z,0.00
2018-03-21T08:11:47.373Z,0.00
2018-03-21T08:12:53.093Z,-0.10
2018-03-21T08:13:58.602Z,-0.10
2018-03-21T08:15:04.687Z,0.10
2018-03-21T08:16:10.732Z,0.10
2018-03-21T08:17:15.876Z,0.10
2018-03-21T08:18:20.987Z,0.10
2018-03-21T08:19:27.912Z,0.20
2018-03-21T08:20:33.694Z,0.30
2018-03-21T08:21:39.778Z,0.30
2018-03-21T08:22:45.128Z,0.30
2018-03-21T08:23:50.913Z,0.20
2018-03-21T08:24:56.685Z,0.20
2018-03-21T08:26:01.817Z,0.20
2018-03-21T08:27:08.504Z,0.10
2018-03-21T08:28:13.662Z,0.10
2018-03-21T08:29:19.098Z,0.20
2018-03-21T08:30:24.267Z,0.20
2018-03-21T08:31:30.372Z,0.10
2018-03-21T08:32:36.973Z,0.00
2018-03-21T08:33:44.104Z,0.00
2018-03-21T08:34:49.631Z,-0.10
2018-03-21T08:35:55.214Z,0.00
2018-03-21T08:37:02.101Z,-0.10
2018-03-21T08:38:08.885Z,-0.10
2018-03-21T08:39:15.016Z,-0.20
2018-03-21T08:40:25.013Z,-0.20
2018-03-21T08:41:31.289Z,-0.30
2018-03-21T08:42:38.980Z,-0.30
2018-03-21T08:43:45.080Z,-0.40
2018-03-21T08:44:52.240Z,-0.40
2018-03-21T08:46:00.572Z,-0.10
2018-03-21T08:47:06.628Z,-0.10
2018-03-21T08:48:15.104Z,-0.20
2018-03-21T08:49:22.152Z,-0.30
2018-03-21T08:50:30.430Z,-0.30
2018-03-21T08:51:37.120Z,-0.30
2018-03-21T08:52:43.838Z,-0.50
2018-03-21T08:53:52.811Z,-0.50
2018-03-21T08:54:59.426Z,-0.50
2018-03-21T08:56:05.823Z,-0.50
2018-03-21T08:57:12.027Z,-0.50
2018-03-21T08:58:18.416Z,-0.50
2018-03-21T08:59:25.148Z,-0.50
2018-03-21T09:00:30.587Z,-0.50
2018-03-21T09:01:37.627Z,-0.50
2018-03-21T09:02:44.911Z,-0.60
2018-03-21T09:03:53.805Z,-0.50
2018-03-21T09:04:59.818Z,-0.40
2018-03-21T09:06:06.881Z,-0.50
2018-03-21T09:07:13.725Z,-0.40
2018-03-21T09:08:21.277Z,-0.40
2018-03-21T09:09:28.028Z,-0.40
2018-03-21T09:10:33.593Z,-0.30
2018-03-21T09:11:39.876Z,-0.40
2018-03-21T09:12:46.169Z,-0.40
2018-03-21T09:13:51.488Z,-0.30
2018-03-21T09:14:57.256Z,-0.10
2018-03-21T09:16:02.372Z,-0.10
2018-03-21T09:17:07.503Z,-0.20
2018-03-21T09:18:13.054Z,-0.30
2018-03-21T09:19:18.279Z,-0.30
2018-03-21T09:20:23.326Z,-0.30
2018-03-21T09:21:28.852Z,-0.20
2018-03-21T09:22:34.935Z,-0.10
2018-03-21T09:23:40.921Z,-0.10
2018-03-21T09:24:45.948Z,-0.20
2018-03-21T09:25:51.071Z,-0.30
2018-03-21T09:26:56.217Z,-0.10
2018-03-21T09:28:01.233Z,0.00
2018-03-21T09:29:08.170Z,0.00
2018-03-21T09:30:15.068Z,0.20
2018-03-21T09:31:20.333Z,0.10
2018-03-21T09:32:25.232Z,0.20
2018-03-21T09:33:30.248Z,0.40
2018-03-21T09:34:37.642Z,0.50
2018-03-21T09:35:42.493Z,0.60
2018-03-21T09:36:48.761Z,0.60
2018-03-21T09:37:55.460Z,0.50
2018-03-21T09:39:08.331Z,0.50
2018-03-21T09:40:13.278Z,0.50
2018-03-21T09:41:18.482Z,0.40
2018-03-21T09:42:24.973Z,0.60
2018-03-21T09:43:30.292Z,0.60
2018-03-21T09:44:35.583Z,0.70
2018-03-21T09:45:42.837Z,0.80
2018-03-21T09:46:48.608Z,0.90
2018-03-21T09:47:55.330Z,1.00
2018-03-21T09:49:00.431Z,1.20
2018-03-21T09:50:14.549Z,1.30
2018-03-21T09:51:19.594Z,1.30
2018-03-21T09:52:29.450Z,1.40
2018-03-21T09:53:35.068Z,1.40
2018-03-21T09:54:48.710Z,1.40
2018-03-21T09:55:53.481Z,1.30
2018-03-21T09:56:59.204Z,1.50
2018-03-21T09:58:05.009Z,1.60
2018-03-21T09:59:11.196Z,1.60
2018-03-21T10:00:16.178Z,1.80
2018-03-21T10:01:21.294Z,1.90
2018-03-21T10:02:26.349Z,2.00
2018-03-21T10:03:31.548Z,1.90
2018-03-21T10:04:36.606Z,1.80
2018-03-21T10:05:41.851Z,1.80
2018-03-21T10:06:47.032Z,1.70
2018-03-21T10:07:52.167Z,1.60
2018-03-21T10:08:57.192Z,1.40
2018-03-21T10:10:03.343Z,1.20
2018-03-21T10:11:09.888Z,1.30
2018-03-21T10:12:17.468Z,1.30
2018-03-21T10:13:22.617Z,1.50
2018-03-21T10:14:27.765Z,1.50
2018-03-21T10:15:32.872Z,1.50
2018-03-21T10:16:37.969Z,1.30
2018-03-21T10:17:43.254Z,1.20
2018-03-21T10:18:48.305Z,1.10
2018-03-21T10:19:54.110Z,0.90
2018-03-21T10:20:59.135Z,0.90
2018-03-21T10:22:08.578Z,1.00
2018-03-21T10:23:14.631Z,1.10
2018-03-21T10:24:20.513Z,1.20
2018-03-21T10:25:25.909Z,1.20
2018-03-21T10:26:33.688Z,1.10
2018-03-21T10:27:39.539Z,1.00
2018-03-21T10:28:45.420Z,1.00
2018-03-21T10:29:50.396Z,1.00
2018-03-21T10:30:55.451Z,1.10
2018-03-21T10:32:00.459Z,1.20
2018-03-21T10:33:06.357Z,1.30
2018-03-21T10:34:11.927Z,1.30
2018-03-21T10:35:17.012Z,1.30
2018-03-21T10:36:23.655Z,1.40
2018-03-21T10:37:28.745Z,1.50
2018-03-21T10:38:34.534Z,1.60
2018-03-21T10:39:39.597Z,1.60
2018-03-21T10:40:44.721Z,1.70
2018-03-21T10:41:50.139Z,1.90
2018-03-21T10:42:56.774Z,1.90
2018-03-21T10:44:01.861Z,1.90
2018-03-21T10:45:09.169Z,1.70
2018-03-21T10:46:14.483Z,1.70
2018-03-21T10:47:19.479Z,1.70
2018-03-21T10:48:24.819Z,1.70
2018-03-21T10:49:30.984Z,1.60
2018-03-21T10:50:38.322Z,1.60
2018-03-21T10:51:43.745Z,1.60
2018-03-21T10:52:48.772Z,1.60
2018-03-21T10:53:53.776Z,1.60
2018-03-21T10:54:58.736Z,1.60
2018-03-21T10:56:03.734Z,1.60
2018-03-21T10:57:09.622Z,1.60
2018-03-21T10:58:15.464Z,1.40
2018-03-21T10:59:21.338Z,1.60
2018-03-21T11:00:26.512Z,1.60
2018-03-21T11:01:36.527Z,1.80
2018-03-21T11:02:45.545Z,2.00
2018-03-21T11:04:02.551Z,2.20
2018-03-21T11:05:07.542Z,2.40
2018-03-21T11:07:29.482Z,2.30
2018-03-21T11:08:36.095Z,2.10
2018-03-21T11:09:41.130Z,2.00
2018-03-21T11:10:46.928Z,2.10
2018-03-21T11:11:52.076Z,2.00
2018-03-21T11:12:57.099Z,2.10
2018-03-21T11:14:01.957Z,2.10
2018-03-21T11:15:07.372Z,2.00
2018-03-21T11:16:13.074Z,1.90
2018-03-21T11:17:18.179Z,1.90
2018-03-21T11:18:28.536Z,2.00
2018-03-21T11:19:33.450Z,2.00
2018-03-21T11:20:38.405Z,2.10
2018-03-21T11:21:44.398Z,2.10
2018-03-21T11:22:49.521Z,2.10
2018-03-21T11:23:54.549Z,2.20
2018-03-21T11:24:59.787Z,2.20
2018-03-21T11:26:04.660Z,2.20
2018-03-21T11:27:10.903Z,2.10
2018-03-21T11:28:15.941Z,2.10
2018-03-21T11:29:21.190Z,2.00
2018-03-21T11:30:30.439Z,1.90
2018-03-21T11:31:35.487Z,1.90
2018-03-21T11:32:41.386Z,2.10
2018-03-21T11:33:46.285Z,2.20
2018-03-21T11:34:52.054Z,2.60
2018-03-21T11:35:57.029Z,2.60
2018-03-21T11:37:01.909Z,2.70
2018-03-21T11:38:07.515Z,2.80
2018-03-21T11:39:13.490Z,2.80
2018-03-21T11:40:18.426Z,2.90
2018-03-21T11:41:23.440Z,3.00
2018-03-21T11:42:30.717Z,2.80
2018-03-21T11:43:35.644Z,2.80
2018-03-21T11:44:41.031Z,2.80
2018-03-21T11:45:46.315Z,3.00
2018-03-21T11:46:51.210Z,3.20
2018-03-21T11:47:56.126Z,3.20
2018-03-21T11:49:01.518Z,3.30
2018-03-21T11:50:07.033Z,3.50
2018-03-21T11:51:12.816Z,3.60
2018-03-21T11:52:18.535Z,3.70
2018-03-21T11:53:23.691Z,3.70
2018-03-21T11:54:28.645Z,3.70
2018-03-21T11:55:33.640Z,3.70
2018-03-21T11:56:39.046Z,3.70
2018-03-21T11:57:44.043Z,3.60
2018-03-21T11:58:48.988Z,3.50
2018-03-21T11:59:53.966Z,3.40
2018-03-21T12:00:59.233Z,3.60
2018-03-21T12:02:07.275Z,3.60
2018-03-21T12:03:13.625Z,3.60
2018-03-21T12:04:18.608Z,3.80
2018-03-21T12:05:23.674Z,3.70
2018-03-21T12:06:28.940Z,3.80
2018-03-21T12:07:34.262Z,3.70
2018-03-21T12:08:39.398Z,3.50
2018-03-21T12:09:44.384Z,3.60
2018-03-21T12:10:49.420Z,3.80
2018-03-21T12:11:54.917Z,3.90
2018-03-21T12:13:00.058Z,4.00
2018-03-21T12:14:05.963Z,4.10
2018-03-21T12:15:11.664Z,4.20
2018-03-21T12:16:17.862Z,4.20
2018-03-21T12:17:25.404Z,4.40
2018-03-21T12:18:31.753Z,4.40
2018-03-21T12:19:38.539Z,4.40
2018-03-21T12:20:48.276Z,4.50
2018-03-21T12:21:57.633Z,4.20
2018-03-21T12:23:05.807Z,4.20
2018-03-21T12:24:14.550Z,4.00
2018-03-21T12:25:22.832Z,4.00
2018-03-21T12:27:38.155Z,4.10
2018-03-21T12:28:49.132Z,4.10
2018-03-21T12:29:57.711Z,4.20
2018-03-21T12:31:06.453Z,4.30
2018-03-21T12:32:13.189Z,4.30
2018-03-21T12:33:18.369Z,4.30
2018-03-21T12:34:23.333Z,4.50
2018-03-21T12:35:28.522Z,4.60
2018-03-21T12:36:34.323Z,4.70
2018-03-21T12:37:39.569Z,4.60
2018-03-21T12:38:45.173Z,4.60
2018-03-21T12:39:50.004Z,4.70
2018-03-21T12:40:55.269Z,4.70
2018-03-21T12:42:01.191Z,4.60
2018-03-21T12:43:06.825Z,4.60
2018-03-21T12:44:12.134Z,4.60
2018-03-21T12:45:17.315Z,4.80
2018-03-21T12:46:22.754Z,4.90
2018-03-21T12:47:28.696Z,5.20
2018-03-21T12:48:33.494Z,5.60
2018-03-21T12:49:39.563Z,5.60
2018-03-21T12:50:45.934Z,5.80
2018-03-21T12:51:52.307Z,5.70
2018-03-21T12:52:58.239Z,5.60
2018-03-21T12:54:04.158Z,5.50
2018-03-21T12:55:10.160Z,5.50
2018-03-21T12:56:15.886Z,5.50
2018-03-21T12:57:21.991Z,5.70
2018-03-21T12:58:26.967Z,5.70
2018-03-21T12:59:32.327Z,5.70
2018-03-21T13:00:37.294Z,5.80
2018-03-21T13:01:42.522Z,5.80
2018-03-21T13:02:48.752Z,6.00
2018-03-21T13:03:53.698Z,6.00
2018-03-21T13:05:01.473Z,5.90
2018-03-21T13:06:07.513Z,5.90
2018-03-21T13:07:13.348Z,5.90
2018-03-21T13:08:19.292Z,6.00
2018-03-21T13:09:24.613Z,6.30
2018-03-21T13:10:30.271Z,6.50
2018-03-21T13:11:36.488Z,6.80
2018-03-21T13:12:50.740Z,7.00
2018-03-21T13:13:57.332Z,7.20
2018-03-21T13:15:03.889Z,7.60
2018-03-21T13:16:10.796Z,7.50
2018-03-21T13:17:15.959Z,7.50
2018-03-21T13:18:21.667Z,7.50
2018-03-21T13:19:26.707Z,7.50
2018-03-21T13:20:34.606Z,7.50
2018-03-21T13:21:40.135Z,7.50
2018-03-21T13:22:47.888Z,7.50
2018-03-21T13:23:54.049Z,7.30
2018-03-21T13:25:01.167Z,7.20
2018-03-21T13:26:06.246Z,7.20
2018-03-21T13:27:12.901Z,7.30
2018-03-21T13:28:17.923Z,7.30
2018-03-21T13:29:23.758Z,7.00
2018-03-21T13:30:30.441Z,7.00
2018-03-21T13:31:35.865Z,6.80
2018-03-21T13:32:43.919Z,6.50
2018-03-21T13:33:50.504Z,6.50
2018-03-21T13:34:57.299Z,6.30
2018-03-21T13:36:04.149Z,6.30
2018-03-21T13:37:10.295Z,6.20
2018-03-21T13:38:16.258Z,6.20
2018-03-21T13:39:21.371Z,6.10
2018-03-21T13:40:28.801Z,5.90
2018-03-21T13:41:34.827Z,5.90
2018-03-21T13:42:42.111Z,5.80
2018-03-21T13:43:49.286Z,5.70
2018-03-21T13:44:55.309Z,5.70
2018-03-21T13:46:03.615Z,5.70
2018-03-21T13:47:10.543Z,5.80
2018-03-21T13:48:15.742Z,5.90
2018-03-21T13:49:21.245Z,6.10
2018-03-21T13:50:27.000Z,6.20
2018-03-21T13:51:32.108Z,6.30
2018-03-21T13:52:39.562Z,6.40
2018-03-21T13:53:45.464Z,6.50
2018-03-21T13:54:52.334Z,6.50
2018-03-21T13:55:58.295Z,6.40
2018-03-21T13:57:04.068Z,6.40
2018-03-21T13:58:10.942Z,6.70
2018-03-21T13:59:16.614Z,6.70
2018-03-21T14:00:22.566Z,6.70
2018-03-21T14:01:28.264Z,6.70
2018-03-21T14:02:34.455Z,6.80
2018-03-21T14:03:39.358Z,6.90
2018-03-21T14:04:44.396Z,6.90
2018-03-21T14:05:49.622Z,6.80
2018-03-21T14:06:54.750Z,6.70
2018-03-21T14:08:14.099Z,6.70
2018-03-21T14:09:19.062Z,6.70
2018-03-21T14:10:25.725Z,6.70
2018-03-21T14:11:30.767Z,6.80
2018-03-21T14:12:37.434Z,7.00
2018-03-21T14:13:42.414Z,7.00
2018-03-21T14:14:47.658Z,7.10
2018-03-21T14:15:53.636Z,7.30
2018-03-21T14:17:00.653Z,7.70
2018-03-21T14:18:06.829Z,7.60
2018-03-21T14:19:13.934Z,7.90
2018-03-21T14:20:19.691Z,7.90
2018-03-21T14:21:27.175Z,7.70
2018-03-21T14:22:33.599Z,7.60
2018-03-21T14:23:39.569Z,7.40
2018-03-21T14:24:45.758Z,7.30
2018-03-21T14:25:51.792Z,7.20